sensor_id;sensor_type;location;lat;lon;timestamp;temperature;humidity
702;DHT22;334;48.808;9.222;2022-11-04T00:00:13;14.30;4.70
702;DHT22;334;48.808;9.222;2022-11-04T00:01:16;14.30;4.50
702;DHT22;334;48.808;9.222;2022-11-04T00:02:18;14.30;4.30
702;DHT22;334;48.808;9.222;2022-11-04T00:03:23;14.30;5.00
702;DHT22;334;48.808;9.222;2022-11-04T00:04:27;14.30;4.80
702;DHT22;334;48.808;9.222;2022-11-04T00:05:29;14.20;4.30
702;DHT22;334;48.808;9.222;2022-11-04T00:06:34;14.20;5.00
702;DHT22;334;48.808;9.222;2022-11-04T00:07:36;14.20;5.70
702;DHT22;334;48.808;9.222;2022-11-04T00:08:58;14.20;5.60
702;DHT22;334;48.808;9.222;2022-11-04T00:10:04;14.30;6.00
702;DHT22;334;48.808;9.222;2022-11-04T00:11:05;14.30;6.00
702;DHT22;334;48.808;9.222;2022-11-04T00:12:26;14.30;6.00
702;DHT22;334;48.808;9.222;2022-11-04T00:13:28;14.30;6.40
702;DHT22;334;48.808;9.222;2022-11-04T00:14:34;14.30;6.80
702;DHT22;334;48.808;9.222;2022-11-04T00:15:39;14.30;6.00
702;DHT22;334;48.808;9.222;2022-11-04T00:17:00;14.30;5.10
702;DHT22;334;48.808;9.222;2022-11-04T00:18:22;14.30;5.20
702;DHT22;334;48.808;9.222;2022-11-04T00:19:26;14.30;5.40
702;DHT22;334;48.808;9.222;2022-11-04T00:20:28;14.30;5.70
702;DHT22;334;48.808;9.222;2022-11-04T00:21:49;14.30;6.00
702;DHT22;334;48.808;9.222;2022-11-04T00:23:10;14.30;5.80
702;DHT22;334;48.808;9.222;2022-11-04T00:24:35;14.30;5.20
702;DHT22;334;48.808;9.222;2022-11-04T00:25:48;14.20;5.40
702;DHT22;334;48.808;9.222;2022-11-04T00:27:13;14.20;5.30
702;DHT22;334;48.808;9.222;2022-11-04T00:28:33;14.20;5.10
702;DHT22;334;48.808;9.222;2022-11-04T00:29:45;14.20;4.80
702;DHT22;334;48.808;9.222;2022-11-04T00:30:54;14.10;5.00
702;DHT22;334;48.808;9.222;2022-11-04T00:31:56;14.10;5.20
702;DHT22;334;48.808;9.222;2022-11-04T00:33:17;14.10;5.30
702;DHT22;334;48.808;9.222;2022-11-04T00:34:30;14.10;5.30
702;DHT22;334;48.808;9.222;2022-11-04T00:35:33;14.10;5.40
702;DHT22;334;48.808;9.222;2022-11-04T00:36:34;14.10;5.30
702;DHT22;334;48.808;9.222;2022-11-04T00:37:38;14.10;5.20
702;DHT22;334;48.808;9.222;2022-11-04T00:38:42;14.20;5.60
702;DHT22;334;48.808;9.222;2022-11-04T00:39:44;14.20;5.70
702;DHT22;334;48.808;9.222;2022-11-04T00:40:49;14.20;6.10
702;DHT22;334;48.808;9.222;2022-11-04T00:41:54;14.20;6.10
702;DHT22;334;48.808;9.222;2022-11-04T00:42:56;14.20;6.40
702;DHT22;334;48.808;9.222;2022-11-04T00:44:03;14.20;6.30
702;DHT22;334;48.808;9.222;2022-11-04T00:45:05;14.20;6.40
702;DHT22;334;48.808;9.222;2022-11-04T00:46:08;14.20;6.80
702;DHT22;334;48.808;9.222;2022-11-04T00:47:12;14.20;6.70
702;DHT22;334;48.808;9.222;2022-11-04T00:48:15;14.20;5.40
702;DHT22;334;48.808;9.222;2022-11-04T00:49:17;14.20;4.70
702;DHT22;334;48.808;9.222;2022-11-04T00:50:18;14.20;4.70
702;DHT22;334;48.808;9.222;2022-11-04T00:51:20;14.20;5.00
702;DHT22;334;48.808;9.222;2022-11-04T00:52:23;14.20;4.90
702;DHT22;334;48.808;9.222;2022-11-04T00:53:27;14.20;4.80
702;DHT22;334;48.808;9.222;2022-11-04T00:54:30;14.20;4.40
702;DHT22;334;48.808;9.222;2022-11-04T00:55:33;14.10;3.80
702;DHT22;334;48.808;9.222;2022-11-04T00:56:39;14.20;3.90
702;DHT22;334;48.808;9.222;2022-11-04T00:57:42;14.10;3.80
702;DHT22;334;48.808;9.222;2022-11-04T00:58:44;14.10;3.80
702;DHT22;334;48.808;9.222;2022-11-04T00:59:47;14.10;3.80
702;DHT22;334;48.808;9.222;2022-11-04T01:00:49;14.10;3.80
702;DHT22;334;48.808;9.222;2022-11-04T01:01:51;14.10;3.80
702;DHT22;334;48.808;9.222;2022-11-04T01:02:54;14.10;3.80
702;DHT22;334;48.808;9.222;2022-11-04T01:03:58;14.00;3.70
702;DHT22;334;48.808;9.222;2022-11-04T01:05:00;14.00;3.70
702;DHT22;334;48.808;9.222;2022-11-04T01:06:09;14.00;3.70
702;DHT22;334;48.808;9.222;2022-11-04T01:07:12;14.00;3.70
702;DHT22;334;48.808;9.222;2022-11-04T01:08:14;14.00;3.70
702;DHT22;334;48.808;9.222;2022-11-04T01:09:16;14.10;4.10
702;DHT22;334;48.808;9.222;2022-11-04T01:10:18;14.10;3.80
702;DHT22;334;48.808;9.222;2022-11-04T01:11:22;14.00;3.70
702;DHT22;334;48.808;9.222;2022-11-04T01:12:26;14.00;3.70
702;DHT22;334;48.808;9.222;2022-11-04T01:13:29;14.00;3.70
702;DHT22;334;48.808;9.222;2022-11-04T01:14:31;14.10;4.00
702;DHT22;334;48.808;9.222;2022-11-04T01:15:33;14.10;3.90
702;DHT22;334;48.808;9.222;2022-11-04T01:16:37;14.10;3.80
702;DHT22;334;48.808;9.222;2022-11-04T01:17:39;14.10;3.80
702;DHT22;334;48.808;9.222;2022-11-04T01:18:41;14.10;3.80
702;DHT22;334;48.808;9.222;2022-11-04T01:19:43;14.10;3.00
702;DHT22;334;48.808;9.222;2022-11-04T01:20:45;14.00;2.70
702;DHT22;334;48.808;9.222;2022-11-04T01:21:49;14.00;2.80
702;DHT22;334;48.808;9.222;2022-11-04T01:22:53;14.00;3.30
702;DHT22;334;48.808;9.222;2022-11-04T01:23:55;13.90;3.40
702;DHT22;334;48.808;9.222;2022-11-04T01:24:58;13.90;3.30
702;DHT22;334;48.808;9.222;2022-11-04T01:26:00;13.90;3.20
702;DHT22;334;48.808;9.222;2022-11-04T01:27:02;13.90;3.10
702;DHT22;334;48.808;9.222;2022-11-04T01:28:04;13.80;3.00
702;DHT22;334;48.808;9.222;2022-11-04T01:29:06;13.80;3.10
702;DHT22;334;48.808;9.222;2022-11-04T01:30:09;13.80;3.90
702;DHT22;334;48.808;9.222;2022-11-04T01:31:16;13.80;3.60
702;DHT22;334;48.808;9.222;2022-11-04T01:32:18;13.80;3.60
702;DHT22;334;48.808;9.222;2022-11-04T01:33:21;13.80;3.60
702;DHT22;334;48.808;9.222;2022-11-04T01:34:26;13.80;3.60
702;DHT22;334;48.808;9.222;2022-11-04T01:35:29;13.80;3.60
702;DHT22;334;48.808;9.222;2022-11-04T01:36:31;13.80;3.60
702;DHT22;334;48.808;9.222;2022-11-04T01:37:33;13.80;3.60
702;DHT22;334;48.808;9.222;2022-11-04T01:38:35;13.70;3.50
702;DHT22;334;48.808;9.222;2022-11-04T01:39:37;13.60;3.80
702;DHT22;334;48.808;9.222;2022-11-04T01:40:40;13.60;3.80
702;DHT22;334;48.808;9.222;2022-11-04T01:41:42;13.70;4.00
702;DHT22;334;48.808;9.222;2022-11-04T01:42:43;13.60;3.90
702;DHT22;334;48.808;9.222;2022-11-04T01:44:58;13.60;4.00
702;DHT22;334;48.808;9.222;2022-11-04T01:46:01;13.60;3.90
702;DHT22;334;48.808;9.222;2022-11-04T01:47:03;13.60;4.20
702;DHT22;334;48.808;9.222;2022-11-04T01:48:14;13.60;4.20
702;DHT22;334;48.808;9.222;2022-11-04T01:50:31;13.60;4.50
702;DHT22;334;48.808;9.222;2022-11-04T01:51:36;13.60;4.50
702;DHT22;334;48.808;9.222;2022-11-04T01:52:42;13.60;4.50
702;DHT22;334;48.808;9.222;2022-11-04T01:53:50;13.60;4.50
702;DHT22;334;48.808;9.222;2022-11-04T01:54:55;13.60;4.50
702;DHT22;334;48.808;9.222;2022-11-04T01:56:00;13.60;4.50
702;DHT22;334;48.808;9.222;2022-11-04T01:57:06;13.60;4.50
702;DHT22;334;48.808;9.222;2022-11-04T01:58:17;13.60;4.50
702;DHT22;334;48.808;9.222;2022-11-04T01:59:29;13.70;5.20
702;DHT22;334;48.808;9.222;2022-11-04T02:00:33;13.70;4.70
702;DHT22;334;48.808;9.222;2022-11-04T02:01:38;13.70;4.90
702;DHT22;334;48.808;9.222;2022-11-04T02:02:53;13.70;4.80
702;DHT22;334;48.808;9.222;2022-11-04T02:04:01;13.70;4.90
702;DHT22;334;48.808;9.222;2022-11-04T02:05:21;13.70;4.80
702;DHT22;334;48.808;9.222;2022-11-04T02:06:25;13.70;4.90
702;DHT22;334;48.808;9.222;2022-11-04T02:07:27;13.70;4.80
702;DHT22;334;48.808;9.222;2022-11-04T02:08:29;13.70;4.70
702;DHT22;334;48.808;9.222;2022-11-04T02:09:33;13.70;4.50
702;DHT22;334;48.808;9.222;2022-11-04T02:10:39;13.80;4.70
702;DHT22;334;48.808;9.222;2022-11-04T02:11:41;13.80;4.60
702;DHT22;334;48.808;9.222;2022-11-04T02:13:03;13.80;4.60
702;DHT22;334;48.808;9.222;2022-11-04T02:14:06;13.80;5.10
702;DHT22;334;48.808;9.222;2022-11-04T02:15:10;13.80;4.50
702;DHT22;334;48.808;9.222;2022-11-04T02:16:27;13.80;4.50
702;DHT22;334;48.808;9.222;2022-11-04T02:18:02;13.80;4.50
702;DHT22;334;48.808;9.222;2022-11-04T02:21:23;13.90;3.60
702;DHT22;334;48.808;9.222;2022-11-04T02:32:26;13.60;1.50
702;DHT22;334;48.808;9.222;2022-11-04T02:33:52;13.50;1.50
702;DHT22;334;48.808;9.222;2022-11-04T02:43:02;13.40;1.20
702;DHT22;334;48.808;9.222;2022-11-04T02:45:38;13.40;2.00
702;DHT22;334;48.808;9.222;2022-11-04T02:47:14;13.40;1.60
702;DHT22;334;48.808;9.222;2022-11-04T02:48:37;13.40;1.40
702;DHT22;334;48.808;9.222;2022-11-04T02:51:28;13.40;1.10
702;DHT22;334;48.808;9.222;2022-11-04T02:53:04;13.40;1.00
702;DHT22;334;48.808;9.222;2022-11-04T02:54:16;13.40;1.00
702;DHT22;334;48.808;9.222;2022-11-04T02:55:41;13.40;1.00
702;DHT22;334;48.808;9.222;2022-11-04T02:57:25;13.40;1.00
702;DHT22;334;48.808;9.222;2022-11-04T02:58:36;13.40;1.00
702;DHT22;334;48.808;9.222;2022-11-04T02:59:45;13.40;1.00
702;DHT22;334;48.808;9.222;2022-11-04T03:00:48;13.40;1.00
702;DHT22;334;48.808;9.222;2022-11-04T03:02:00;13.40;1.00
702;DHT22;334;48.808;9.222;2022-11-04T03:03:12;13.40;1.00
702;DHT22;334;48.808;9.222;2022-11-04T03:04:20;13.50;1.00
702;DHT22;334;48.808;9.222;2022-11-04T03:05:29;13.50;1.30
702;DHT22;334;48.808;9.222;2022-11-04T03:06:35;13.50;1.00
702;DHT22;334;48.808;9.222;2022-11-04T03:07:41;13.50;1.10
702;DHT22;334;48.808;9.222;2022-11-04T03:08:50;13.50;1.00
702;DHT22;334;48.808;9.222;2022-11-04T03:10:00;13.50;1.00
702;DHT22;334;48.808;9.222;2022-11-04T03:11:23;13.50;1.00
702;DHT22;334;48.808;9.222;2022-11-04T03:12:38;13.60;1.00
702;DHT22;334;48.808;9.222;2022-11-04T03:13:55;13.60;1.00
702;DHT22;334;48.808;9.222;2022-11-04T03:15:02;13.60;1.00
702;DHT22;334;48.808;9.222;2022-11-04T03:16:23;13.60;1.00
702;DHT22;334;48.808;9.222;2022-11-04T03:17:31;13.60;1.00
702;DHT22;334;48.808;9.222;2022-11-04T03:20:20;13.60;1.00
702;DHT22;334;48.808;9.222;2022-11-04T03:21:27;13.60;1.00
702;DHT22;334;48.808;9.222;2022-11-04T03:22:37;13.60;1.00
702;DHT22;334;48.808;9.222;2022-11-04T03:23:40;13.60;1.00
702;DHT22;334;48.808;9.222;2022-11-04T03:24:44;13.70;1.00
702;DHT22;334;48.808;9.222;2022-11-04T03:25:50;13.60;1.00
702;DHT22;334;48.808;9.222;2022-11-04T03:27:13;13.80;1.00
702;DHT22;334;48.808;9.222;2022-11-04T03:29:55;13.70;1.00
702;DHT22;334;48.808;9.222;2022-11-04T03:31:02;13.70;1.00
702;DHT22;334;48.808;9.222;2022-11-04T03:33:40;13.70;1.00
702;DHT22;334;48.808;9.222;2022-11-04T03:34:44;13.70;1.00
702;DHT22;334;48.808;9.222;2022-11-04T03:35:49;13.70;1.00
702;DHT22;334;48.808;9.222;2022-11-04T03:36:52;13.70;1.00
702;DHT22;334;48.808;9.222;2022-11-04T03:37:54;13.70;1.00
702;DHT22;334;48.808;9.222;2022-11-04T03:38:57;13.70;1.00
702;DHT22;334;48.808;9.222;2022-11-04T03:39:59;13.70;1.00
702;DHT22;334;48.808;9.222;2022-11-04T03:41:08;13.70;1.00
702;DHT22;334;48.808;9.222;2022-11-04T03:42:13;13.70;1.00
702;DHT22;334;48.808;9.222;2022-11-04T03:43:25;13.70;1.00
702;DHT22;334;48.808;9.222;2022-11-04T03:44:29;13.70;1.00
702;DHT22;334;48.808;9.222;2022-11-04T03:45:31;13.70;1.10
702;DHT22;334;48.808;9.222;2022-11-04T03:46:33;13.70;1.00
702;DHT22;334;48.808;9.222;2022-11-04T03:47:37;13.70;1.00
702;DHT22;334;48.808;9.222;2022-11-04T03:48:43;13.70;1.00
702;DHT22;334;48.808;9.222;2022-11-04T03:49:49;13.60;1.00
702;DHT22;334;48.808;9.222;2022-11-04T03:50:58;13.60;1.00
702;DHT22;334;48.808;9.222;2022-11-04T03:52:00;13.70;1.00
702;DHT22;334;48.808;9.222;2022-11-04T03:53:02;13.60;1.00
702;DHT22;334;48.808;9.222;2022-11-04T03:54:07;13.60;1.00
702;DHT22;334;48.808;9.222;2022-11-04T03:55:10;13.60;1.00
702;DHT22;334;48.808;9.222;2022-11-04T03:56:22;13.60;1.00
702;DHT22;334;48.808;9.222;2022-11-04T04:00:15;13.60;1.00
702;DHT22;334;48.808;9.222;2022-11-04T04:02:08;13.60;1.00
702;DHT22;334;48.808;9.222;2022-11-04T04:03:45;13.60;1.00
702;DHT22;334;48.808;9.222;2022-11-04T04:04:29;13.60;1.00
702;DHT22;334;48.808;9.222;2022-11-04T04:05:33;13.60;1.00
702;DHT22;334;48.808;9.222;2022-11-04T04:06:42;13.60;1.00
702;DHT22;334;48.808;9.222;2022-11-04T04:07:51;13.40;1.00
702;DHT22;334;48.808;9.222;2022-11-04T04:09:13;13.60;1.00
702;DHT22;334;48.808;9.222;2022-11-04T04:12:13;13.60;1.00
702;DHT22;334;48.808;9.222;2022-11-04T04:14:47;13.60;1.30
702;DHT22;334;48.808;9.222;2022-11-04T04:16:00;13.60;1.40
702;DHT22;334;48.808;9.222;2022-11-04T04:17:11;13.50;1.30
702;DHT22;334;48.808;9.222;2022-11-04T04:18:19;13.60;1.50
702;DHT22;334;48.808;9.222;2022-11-04T04:19:29;13.50;1.30
702;DHT22;334;48.808;9.222;2022-11-04T04:20:37;13.50;1.30
702;DHT22;334;48.808;9.222;2022-11-04T04:21:55;13.50;1.50
702;DHT22;334;48.808;9.222;2022-11-04T04:23:04;13.50;1.30
702;DHT22;334;48.808;9.222;2022-11-04T04:24:35;13.50;1.40
702;DHT22;334;48.808;9.222;2022-11-04T04:25:59;13.50;1.80
702;DHT22;334;48.808;9.222;2022-11-04T04:27:22;13.50;1.70
702;DHT22;334;48.808;9.222;2022-11-04T04:28:34;13.50;1.90
702;DHT22;334;48.808;9.222;2022-11-04T04:29:37;13.50;2.20
702;DHT22;334;48.808;9.222;2022-11-04T04:30:41;13.40;1.70
702;DHT22;334;48.808;9.222;2022-11-04T04:31:48;13.50;1.50
702;DHT22;334;48.808;9.222;2022-11-04T04:32:56;13.50;1.40
702;DHT22;334;48.808;9.222;2022-11-04T04:33:58;13.50;1.40
702;DHT22;334;48.808;9.222;2022-11-04T04:35:01;13.50;1.50
702;DHT22;334;48.808;9.222;2022-11-04T04:36:21;13.40;1.60
702;DHT22;334;48.808;9.222;2022-11-04T04:37:25;13.50;1.80
702;DHT22;334;48.808;9.222;2022-11-04T04:38:30;13.50;1.70
702;DHT22;334;48.808;9.222;2022-11-04T04:39:59;13.50;1.80
702;DHT22;334;48.808;9.222;2022-11-04T04:41:30;13.50;2.00
702;DHT22;334;48.808;9.222;2022-11-04T04:42:52;13.50;2.30
702;DHT22;334;48.808;9.222;2022-11-04T04:44:17;13.50;2.60
702;DHT22;334;48.808;9.222;2022-11-04T04:45:42;13.40;2.50
702;DHT22;334;48.808;9.222;2022-11-04T04:46:47;13.40;2.60
702;DHT22;334;48.808;9.222;2022-11-04T04:47:50;13.40;2.90
702;DHT22;334;48.808;9.222;2022-11-04T04:48:53;13.40;3.10
702;DHT22;334;48.808;9.222;2022-11-04T04:49:57;13.40;3.10
702;DHT22;334;48.808;9.222;2022-11-04T04:50:59;13.40;3.30
702;DHT22;334;48.808;9.222;2022-11-04T04:52:05;13.40;3.40
702;DHT22;334;48.808;9.222;2022-11-04T04:53:07;13.40;3.30
702;DHT22;334;48.808;9.222;2022-11-04T04:54:10;13.40;3.30
702;DHT22;334;48.808;9.222;2022-11-04T04:55:13;13.40;3.30
702;DHT22;334;48.808;9.222;2022-11-04T04:56:15;13.40;3.30
702;DHT22;334;48.808;9.222;2022-11-04T04:57:17;13.40;3.30
702;DHT22;334;48.808;9.222;2022-11-04T04:58:19;13.40;3.30
702;DHT22;334;48.808;9.222;2022-11-04T04:59:21;13.40;3.30
702;DHT22;334;48.808;9.222;2022-11-04T05:00:23;13.40;3.30
702;DHT22;334;48.808;9.222;2022-11-04T05:01:26;13.50;3.40
702;DHT22;334;48.808;9.222;2022-11-04T05:02:33;13.50;3.40
702;DHT22;334;48.808;9.222;2022-11-04T05:03:36;13.40;3.30
702;DHT22;334;48.808;9.222;2022-11-04T05:04:45;13.40;3.30
702;DHT22;334;48.808;9.222;2022-11-04T05:05:50;13.40;3.30
702;DHT22;334;48.808;9.222;2022-11-04T05:06:58;13.40;3.30
702;DHT22;334;48.808;9.222;2022-11-04T05:08:04;13.40;3.30
702;DHT22;334;48.808;9.222;2022-11-04T05:09:09;13.40;3.30
702;DHT22;334;48.808;9.222;2022-11-04T05:10:12;13.40;3.30
702;DHT22;334;48.808;9.222;2022-11-04T05:11:14;13.40;3.30
702;DHT22;334;48.808;9.222;2022-11-04T05:12:17;13.40;3.10
702;DHT22;334;48.808;9.222;2022-11-04T05:13:19;13.40;2.80
702;DHT22;334;48.808;9.222;2022-11-04T05:14:28;13.40;2.90
702;DHT22;334;48.808;9.222;2022-11-04T05:15:30;13.40;3.30
702;DHT22;334;48.808;9.222;2022-11-04T05:16:32;13.40;3.30
702;DHT22;334;48.808;9.222;2022-11-04T05:17:41;13.40;3.30
702;DHT22;334;48.808;9.222;2022-11-04T05:18:43;13.40;3.30
702;DHT22;334;48.808;9.222;2022-11-04T05:19:45;13.40;3.30
702;DHT22;334;48.808;9.222;2022-11-04T05:20:49;13.30;3.80
702;DHT22;334;48.808;9.222;2022-11-04T05:21:53;13.40;3.80
702;DHT22;334;48.808;9.222;2022-11-04T05:22:55;13.30;3.70
702;DHT22;334;48.808;9.222;2022-11-04T05:23:57;13.30;3.80
702;DHT22;334;48.808;9.222;2022-11-04T05:24:59;13.30;3.50
702;DHT22;334;48.808;9.222;2022-11-04T05:26:02;13.30;3.30
702;DHT22;334;48.808;9.222;2022-11-04T05:27:04;13.30;3.30
702;DHT22;334;48.808;9.222;2022-11-04T05:28:06;13.30;3.50
702;DHT22;334;48.808;9.222;2022-11-04T05:29:09;13.30;3.80
702;DHT22;334;48.808;9.222;2022-11-04T05:30:15;13.30;3.90
702;DHT22;334;48.808;9.222;2022-11-04T05:31:17;13.30;3.90
702;DHT22;334;48.808;9.222;2022-11-04T05:32:19;13.30;3.80
702;DHT22;334;48.808;9.222;2022-11-04T05:33:21;13.30;3.80
702;DHT22;334;48.808;9.222;2022-11-04T05:34:25;13.30;4.00
702;DHT22;334;48.808;9.222;2022-11-04T05:35:26;13.30;4.20
702;DHT22;334;48.808;9.222;2022-11-04T05:36:29;13.30;4.10
702;DHT22;334;48.808;9.222;2022-11-04T05:37:31;13.30;3.90
702;DHT22;334;48.808;9.222;2022-11-04T05:38:34;13.30;4.00
702;DHT22;334;48.808;9.222;2022-11-04T05:39:38;13.30;4.10
702;DHT22;334;48.808;9.222;2022-11-04T05:40:40;13.20;4.20
702;DHT22;334;48.808;9.222;2022-11-04T05:41:43;13.20;4.20
702;DHT22;334;48.808;9.222;2022-11-04T05:42:46;13.30;4.40
702;DHT22;334;48.808;9.222;2022-11-04T05:43:50;13.20;4.30
702;DHT22;334;48.808;9.222;2022-11-04T05:44:56;13.20;4.20
702;DHT22;334;48.808;9.222;2022-11-04T05:45:59;13.20;3.90
702;DHT22;334;48.808;9.222;2022-11-04T05:47:01;13.20;3.70
702;DHT22;334;48.808;9.222;2022-11-04T05:48:06;13.10;3.10
702;DHT22;334;48.808;9.222;2022-11-04T05:49:08;13.10;3.20
702;DHT22;334;48.808;9.222;2022-11-04T05:50:12;13.10;3.10
702;DHT22;334;48.808;9.222;2022-11-04T05:51:16;13.10;3.40
702;DHT22;334;48.808;9.222;2022-11-04T05:52:18;13.00;3.50
702;DHT22;334;48.808;9.222;2022-11-04T05:53:20;13.00;3.70
702;DHT22;334;48.808;9.222;2022-11-04T05:54:25;13.00;3.60
702;DHT22;334;48.808;9.222;2022-11-04T05:55:30;13.00;3.80
702;DHT22;334;48.808;9.222;2022-11-04T05:56:37;13.00;3.80
702;DHT22;334;48.808;9.222;2022-11-04T05:57:39;13.00;3.70
702;DHT22;334;48.808;9.222;2022-11-04T05:58:41;13.00;3.90
702;DHT22;334;48.808;9.222;2022-11-04T05:59:44;13.00;4.20
702;DHT22;334;48.808;9.222;2022-11-04T06:00:48;13.00;4.50
702;DHT22;334;48.808;9.222;2022-11-04T06:01:55;13.00;4.50
702;DHT22;334;48.808;9.222;2022-11-04T06:03:04;13.00;4.70
702;DHT22;334;48.808;9.222;2022-11-04T06:04:14;13.00;5.00
702;DHT22;334;48.808;9.222;2022-11-04T06:05:17;13.00;5.00
702;DHT22;334;48.808;9.222;2022-11-04T06:06:29;13.00;5.40
702;DHT22;334;48.808;9.222;2022-11-04T06:07:31;13.00;4.70
702;DHT22;334;48.808;9.222;2022-11-04T06:08:33;13.20;5.00
702;DHT22;334;48.808;9.222;2022-11-04T06:09:40;13.00;4.90
702;DHT22;334;48.808;9.222;2022-11-04T06:10:43;13.00;5.00
702;DHT22;334;48.808;9.222;2022-11-04T06:11:45;13.00;4.80
702;DHT22;334;48.808;9.222;2022-11-04T06:12:48;13.00;4.70
702;DHT22;334;48.808;9.222;2022-11-04T06:13:55;13.00;4.50
702;DHT22;334;48.808;9.222;2022-11-04T06:14:57;13.20;4.60
702;DHT22;334;48.808;9.222;2022-11-04T06:15:59;13.00;4.30
702;DHT22;334;48.808;9.222;2022-11-04T06:17:01;13.10;4.50
702;DHT22;334;48.808;9.222;2022-11-04T06:18:05;13.00;4.50
702;DHT22;334;48.808;9.222;2022-11-04T06:19:07;13.10;4.60
702;DHT22;334;48.808;9.222;2022-11-04T06:20:16;13.20;4.50
702;DHT22;334;48.808;9.222;2022-11-04T06:22:26;13.00;4.10
702;DHT22;334;48.808;9.222;2022-11-04T06:23:28;13.00;3.90
702;DHT22;334;48.808;9.222;2022-11-04T06:24:30;13.00;3.90
702;DHT22;334;48.808;9.222;2022-11-04T06:25:32;13.20;3.90
702;DHT22;334;48.808;9.222;2022-11-04T06:26:34;13.10;3.70
702;DHT22;334;48.808;9.222;2022-11-04T06:27:36;13.10;3.60
702;DHT22;334;48.808;9.222;2022-11-04T06:28:40;13.10;3.20
702;DHT22;334;48.808;9.222;2022-11-04T06:29:42;13.10;3.70
702;DHT22;334;48.808;9.222;2022-11-04T06:30:45;13.10;3.10
702;DHT22;334;48.808;9.222;2022-11-04T06:31:47;13.10;3.10
702;DHT22;334;48.808;9.222;2022-11-04T06:32:50;13.10;3.10
702;DHT22;334;48.808;9.222;2022-11-04T06:33:53;13.10;3.10
702;DHT22;334;48.808;9.222;2022-11-04T06:34:56;13.10;3.10
702;DHT22;334;48.808;9.222;2022-11-04T06:35:59;13.10;3.20
702;DHT22;334;48.808;9.222;2022-11-04T06:37:04;13.10;3.10
702;DHT22;334;48.808;9.222;2022-11-04T06:38:06;13.00;3.00
702;DHT22;334;48.808;9.222;2022-11-04T06:39:11;13.00;3.00
702;DHT22;334;48.808;9.222;2022-11-04T06:40:13;13.00;3.00
702;DHT22;334;48.808;9.222;2022-11-04T06:41:15;13.10;3.10
702;DHT22;334;48.808;9.222;2022-11-04T06:42:19;12.90;3.00
702;DHT22;334;48.808;9.222;2022-11-04T06:43:21;12.90;3.00
702;DHT22;334;48.808;9.222;2022-11-04T06:44:28;12.90;2.70
702;DHT22;334;48.808;9.222;2022-11-04T06:45:32;12.90;2.30
702;DHT22;334;48.808;9.222;2022-11-04T06:46:37;12.90;2.10
702;DHT22;334;48.808;9.222;2022-11-04T06:47:42;12.90;1.90
702;DHT22;334;48.808;9.222;2022-11-04T06:48:45;12.80;1.90
702;DHT22;334;48.808;9.222;2022-11-04T06:49:46;12.80;1.90
702;DHT22;334;48.808;9.222;2022-11-04T06:50:48;12.80;1.80
702;DHT22;334;48.808;9.222;2022-11-04T06:51:50;12.80;2.00
702;DHT22;334;48.808;9.222;2022-11-04T06:52:52;12.80;1.90
702;DHT22;334;48.808;9.222;2022-11-04T06:53:55;12.80;1.90
702;DHT22;334;48.808;9.222;2022-11-04T06:54:56;12.80;1.60
702;DHT22;334;48.808;9.222;2022-11-04T06:56:02;12.80;1.90
702;DHT22;334;48.808;9.222;2022-11-04T06:57:09;12.80;2.20
702;DHT22;334;48.808;9.222;2022-11-04T06:58:12;12.80;2.00
702;DHT22;334;48.808;9.222;2022-11-04T06:59:16;12.70;2.30
702;DHT22;334;48.808;9.222;2022-11-04T07:00:18;12.70;2.40
702;DHT22;334;48.808;9.222;2022-11-04T07:01:23;12.70;2.60
702;DHT22;334;48.808;9.222;2022-11-04T07:02:29;12.70;2.90
702;DHT22;334;48.808;9.222;2022-11-04T07:03:33;12.70;2.90
702;DHT22;334;48.808;9.222;2022-11-04T07:04:36;12.70;2.90
702;DHT22;334;48.808;9.222;2022-11-04T07:05:39;12.70;2.90
702;DHT22;334;48.808;9.222;2022-11-04T07:06:42;12.70;2.90
702;DHT22;334;48.808;9.222;2022-11-04T07:07:49;12.70;2.90
702;DHT22;334;48.808;9.222;2022-11-04T07:08:58;12.70;2.90
702;DHT22;334;48.808;9.222;2022-11-04T07:10:02;12.70;2.90
702;DHT22;334;48.808;9.222;2022-11-04T07:11:04;12.70;3.10
702;DHT22;334;48.808;9.222;2022-11-04T07:12:06;12.70;3.40
702;DHT22;334;48.808;9.222;2022-11-04T07:13:08;12.70;3.40
702;DHT22;334;48.808;9.222;2022-11-04T07:14:12;12.70;2.90
702;DHT22;334;48.808;9.222;2022-11-04T07:15:16;12.70;3.00
702;DHT22;334;48.808;9.222;2022-11-04T07:16:22;12.70;3.40
702;DHT22;334;48.808;9.222;2022-11-04T07:17:26;12.80;3.50
702;DHT22;334;48.808;9.222;2022-11-04T07:18:29;12.80;3.00
702;DHT22;334;48.808;9.222;2022-11-04T07:19:30;12.80;3.20
702;DHT22;334;48.808;9.222;2022-11-04T07:20:33;12.90;3.40
702;DHT22;334;48.808;9.222;2022-11-04T07:21:37;12.90;3.60
702;DHT22;334;48.808;9.222;2022-11-04T07:22:40;12.90;3.50
702;DHT22;334;48.808;9.222;2022-11-04T07:23:42;12.90;3.50
702;DHT22;334;48.808;9.222;2022-11-04T07:24:44;12.90;3.60
702;DHT22;334;48.808;9.222;2022-11-04T07:25:46;13.00;3.50
702;DHT22;334;48.808;9.222;2022-11-04T07:26:48;13.00;3.70
702;DHT22;334;48.808;9.222;2022-11-04T07:27:50;13.00;3.80
702;DHT22;334;48.808;9.222;2022-11-04T07:28:55;13.00;3.60
702;DHT22;334;48.808;9.222;2022-11-04T07:29:57;13.00;3.70
702;DHT22;334;48.808;9.222;2022-11-04T07:31:00;13.00;3.70
702;DHT22;334;48.808;9.222;2022-11-04T07:32:03;13.00;3.70
702;DHT22;334;48.808;9.222;2022-11-04T07:33:06;12.90;3.70
702;DHT22;334;48.808;9.222;2022-11-04T07:34:08;12.90;3.90
702;DHT22;334;48.808;9.222;2022-11-04T07:35:12;12.90;4.00
702;DHT22;334;48.808;9.222;2022-11-04T07:36:14;13.00;4.00
702;DHT22;334;48.808;9.222;2022-11-04T07:37:17;13.00;4.00
702;DHT22;334;48.808;9.222;2022-11-04T07:38:20;13.00;4.00
702;DHT22;334;48.808;9.222;2022-11-04T07:39:22;13.00;3.90
702;DHT22;334;48.808;9.222;2022-11-04T07:40:25;13.00;3.90
702;DHT22;334;48.808;9.222;2022-11-04T07:41:27;13.00;3.80
702;DHT22;334;48.808;9.222;2022-11-04T07:42:30;13.00;3.80
702;DHT22;334;48.808;9.222;2022-11-04T07:43:32;13.10;3.80
702;DHT22;334;48.808;9.222;2022-11-04T07:44:34;13.10;3.60
702;DHT22;334;48.808;9.222;2022-11-04T07:45:36;13.10;3.30
702;DHT22;334;48.808;9.222;2022-11-04T07:46:38;13.10;3.10
702;DHT22;334;48.808;9.222;2022-11-04T07:47:40;13.10;3.30
702;DHT22;334;48.808;9.222;2022-11-04T07:48:42;13.10;3.10
702;DHT22;334;48.808;9.222;2022-11-04T07:49:44;13.10;3.10
702;DHT22;334;48.808;9.222;2022-11-04T07:50:46;13.10;3.10
702;DHT22;334;48.808;9.222;2022-11-04T07:51:48;13.10;3.10
702;DHT22;334;48.808;9.222;2022-11-04T07:52:50;13.20;3.20
702;DHT22;334;48.808;9.222;2022-11-04T07:53:53;13.10;3.10
702;DHT22;334;48.808;9.222;2022-11-04T07:54:56;13.20;3.20
702;DHT22;334;48.808;9.222;2022-11-04T07:56:02;13.20;3.20
702;DHT22;334;48.808;9.222;2022-11-04T07:57:05;13.20;3.20
702;DHT22;334;48.808;9.222;2022-11-04T07:58:06;13.20;3.20
702;DHT22;334;48.808;9.222;2022-11-04T07:59:10;13.20;3.20
702;DHT22;334;48.808;9.222;2022-11-04T08:00:14;13.20;3.20
702;DHT22;334;48.808;9.222;2022-11-04T08:01:21;13.20;3.20
702;DHT22;334;48.808;9.222;2022-11-04T08:02:24;13.20;3.20
702;DHT22;334;48.808;9.222;2022-11-04T08:03:33;13.30;3.30
702;DHT22;334;48.808;9.222;2022-11-04T08:04:38;13.30;3.30
702;DHT22;334;48.808;9.222;2022-11-04T08:05:41;13.30;3.30
702;DHT22;334;48.808;9.222;2022-11-04T08:06:43;13.30;3.30
702;DHT22;334;48.808;9.222;2022-11-04T08:07:45;13.30;3.30
702;DHT22;334;48.808;9.222;2022-11-04T08:08:47;13.40;3.30
702;DHT22;334;48.808;9.222;2022-11-04T08:09:49;13.40;3.30
702;DHT22;334;48.808;9.222;2022-11-04T08:10:52;13.40;3.30